sensor_id;sensor_type;location;lat;lon;timestamp;P1;durP1;ratioP1;P2;durP2;ratioP2
37559;SDS011;23398;50.928;7.084;2022-07-23T00:00:05;11.48;;;9.73;;
37559;SDS011;23398;50.928;7.084;2022-07-23T00:02:32;11.98;;;9.15;;
37559;SDS011;23398;50.928;7.084;2022-07-23T00:04:58;10.57;;;9.18;;
37559;SDS011;23398;50.928;7.084;2022-07-23T00:07:23;11.35;;;8.88;;
37559;SDS011;23398;50.928;7.084;2022-07-23T00:09:49;11.25;;;9.90;;
37559;SDS011;23398;50.928;7.084;2022-07-23T00:12:15;11.60;;;10.07;;
37559;SDS011;23398;50.928;7.084;2022-07-23T00:14:40;11.43;;;9.23;;
37559;SDS011;23398;50.928;7.084;2022-07-23T00:17:06;11.48;;;9.10;;
37559;SDS011;23398;50.928;7.084;2022-07-23T00:19:32;9.77;;;8.77;;
37559;SDS011;23398;50.928;7.084;2022-07-23T00:21:57;10.02;;;8.98;;
37559;SDS011;23398;50.928;7.084;2022-07-23T00:24:23;10.85;;;9.55;;
37559;SDS011;23398;50.928;7.084;2022-07-23T00:26:48;11.40;;;9.57;;
37559;SDS011;23398;50.928;7.084;2022-07-23T00:29:14;11.18;;;8.88;;
37559;SDS011;23398;50.928;7.084;2022-07-23T00:31:39;11.10;;;9.13;;
37559;SDS011;23398;50.928;7.084;2022-07-23T00:34:06;10.57;;;9.45;;
37559;SDS011;23398;50.928;7.084;2022-07-23T00:36:31;14.95;;;9.77;;
37559;SDS011;23398;50.928;7.084;2022-07-23T00:38:57;10.75;;;8.57;;
37559;SDS011;23398;50.928;7.084;2022-07-23T00:41:23;11.25;;;9.35;;
37559;SDS011;23398;50.928;7.084;2022-07-23T00:43:48;10.15;;;9.10;;
37559;SDS011;23398;50.928;7.084;2022-07-23T00:46:19;11.90;;;9.55;;
37559;SDS011;23398;50.928;7.084;2022-07-23T00:48:45;11.55;;;9.05;;
37559;SDS011;23398;50.928;7.084;2022-07-23T00:51:10;10.30;;;9.20;;
37559;SDS011;23398;50.928;7.084;2022-07-23T00:53:36;11.10;;;9.10;;
37559;SDS011;23398;50.928;7.084;2022-07-23T00:56:02;10.55;;;9.27;;
37559;SDS011;23398;50.928;7.084;2022-07-23T00:58:28;11.82;;;9.70;;
37559;SDS011;23398;50.928;7.084;2022-07-23T01:00:54;10.80;;;9.57;;
37559;SDS011;23398;50.928;7.084;2022-07-23T01:03:19;11.32;;;9.48;;
37559;SDS011;23398;50.928;7.084;2022-07-23T01:05:45;12.55;;;9.70;;
37559;SDS011;23398;50.928;7.084;2022-07-23T01:08:10;9.85;;;8.85;;
37559;SDS011;23398;50.928;7.084;2022-07-23T01:10:37;12.02;;;9.48;;
37559;SDS011;23398;50.928;7.084;2022-07-23T01:13:04;10.50;;;8.43;;
37559;SDS011;23398;50.928;7.084;2022-07-23T01:15:35;9.70;;;8.55;;
37559;SDS011;23398;50.928;7.084;2022-07-23T01:18:02;9.00;;;7.80;;
37559;SDS011;23398;50.928;7.084;2022-07-23T01:20:29;11.30;;;8.60;;
37559;SDS011;23398;50.928;7.084;2022-07-23T01:22:55;9.02;;;7.93;;
37559;SDS011;23398;50.928;7.084;2022-07-23T01:25:21;8.95;;;7.97;;
37559;SDS011;23398;50.928;7.084;2022-07-23T01:27:48;10.13;;;8.45;;
37559;SDS011;23398;50.928;7.084;2022-07-23T01:30:14;12.43;;;9.05;;
37559;SDS011;23398;50.928;7.084;2022-07-23T01:32:40;10.15;;;8.82;;
37559;SDS011;23398;50.928;7.084;2022-07-23T01:35:06;12.75;;;9.88;;
37559;SDS011;23398;50.928;7.084;2022-07-23T01:37:33;10.48;;;9.32;;
37559;SDS011;23398;50.928;7.084;2022-07-23T01:39:59;10.93;;;9.45;;
37559;SDS011;23398;50.928;7.084;2022-07-23T01:42:24;11.70;;;9.35;;
37559;SDS011;23398;50.928;7.084;2022-07-23T01:44:50;9.48;;;8.15;;
37559;SDS011;23398;50.928;7.084;2022-07-23T01:47:16;10.85;;;9.63;;
37559;SDS011;23398;50.928;7.084;2022-07-23T01:49:42;11.88;;;9.27;;
37559;SDS011;23398;50.928;7.084;2022-07-23T01:52:07;10.50;;;9.20;;
37559;SDS011;23398;50.928;7.084;2022-07-23T01:54:35;10.50;;;9.38;;
37559;SDS011;23398;50.928;7.084;2022-07-23T01:57:03;10.20;;;9.02;;
37559;SDS011;23398;50.928;7.084;2022-07-23T01:59:29;14.60;;;10.00;;
37559;SDS011;23398;50.928;7.084;2022-07-23T02:01:55;11.25;;;9.82;;
37559;SDS011;23398;50.928;7.084;2022-07-23T02:04:21;12.45;;;10.20;;
37559;SDS011;23398;50.928;7.084;2022-07-23T02:06:48;14.02;;;10.35;;
37559;SDS011;23398;50.928;7.084;2022-07-23T02:09:15;11.77;;;10.18;;
37559;SDS011;23398;50.928;7.084;2022-07-23T02:11:41;12.38;;;10.43;;
37559;SDS011;23398;50.928;7.084;2022-07-23T02:14:07;12.80;;;10.00;;
37559;SDS011;23398;50.928;7.084;2022-07-23T02:16:32;13.48;;;10.52;;
37559;SDS011;23398;50.928;7.084;2022-07-23T02:18:58;12.23;;;10.32;;
37559;SDS011;23398;50.928;7.084;2022-07-23T02:21:24;12.65;;;9.93;;
37559;SDS011;23398;50.928;7.084;2022-07-23T02:23:49;11.65;;;9.85;;
37559;SDS011;23398;50.928;7.084;2022-07-23T02:26:15;11.48;;;10.15;;
37559;SDS011;23398;50.928;7.084;2022-07-23T02:28:40;11.80;;;10.10;;
37559;SDS011;23398;50.928;7.084;2022-07-23T02:31:06;11.82;;;9.65;;
37559;SDS011;23398;50.928;7.084;2022-07-23T02:33:32;14.30;;;10.20;;
37559;SDS011;23398;50.928;7.084;2022-07-23T02:35:58;13.30;;;10.48;;
37559;SDS011;23398;50.928;7.084;2022-07-23T02:38:24;12.70;;;10.85;;
37559;SDS011;23398;50.928;7.084;2022-07-23T02:40:50;12.82;;;10.55;;
37559;SDS011;23398;50.928;7.084;2022-07-23T02:43:15;12.98;;;11.15;;
37559;SDS011;23398;50.928;7.084;2022-07-23T02:45:41;16.27;;;10.02;;
37559;SDS011;23398;50.928;7.084;2022-07-23T02:48:07;14.35;;;10.40;;
37559;SDS011;23398;50.928;7.084;2022-07-23T02:50:32;12.43;;;10.05;;
37559;SDS011;23398;50.928;7.084;2022-07-23T02:52:58;13.30;;;10.63;;
37559;SDS011;23398;50.928;7.084;2022-07-23T02:55:24;12.43;;;10.88;;
37559;SDS011;23398;50.928;7.084;2022-07-23T02:57:49;13.52;;;10.65;;
37559;SDS011;23398;50.928;7.084;2022-07-23T03:00:15;14.23;;;11.30;;
37559;SDS011;23398;50.928;7.084;2022-07-23T03:02:41;12.77;;;10.60;;
37559;SDS011;23398;50.928;7.084;2022-07-23T03:05:06;13.07;;;10.07;;
37559;SDS011;23398;50.928;7.084;2022-07-23T03:07:32;13.77;;;10.50;;
37559;SDS011;23398;50.928;7.084;2022-07-23T03:09:58;12.73;;;10.98;;
37559;SDS011;23398;50.928;7.084;2022-07-23T03:12:24;11.57;;;10.35;;
37559;SDS011;23398;50.928;7.084;2022-07-23T03:14:49;13.50;;;10.98;;
37559;SDS011;23398;50.928;7.084;2022-07-23T03:17:15;13.50;;;10.57;;
37559;SDS011;23398;50.928;7.084;2022-07-23T03:19:41;13.57;;;10.50;;
37559;SDS011;23398;50.928;7.084;2022-07-23T03:22:06;12.63;;;10.13;;
37559;SDS011;23398;50.928;7.084;2022-07-23T03:24:32;12.18;;;9.95;;
37559;SDS011;23398;50.928;7.084;2022-07-23T03:27:16;12.32;;;9.77;;
37559;SDS011;23398;50.928;7.084;2022-07-23T03:29:42;15.73;;;10.50;;
37559;SDS011;23398;50.928;7.084;2022-07-23T03:32:08;12.05;;;10.10;;
37559;SDS011;23398;50.928;7.084;2022-07-23T03:34:33;12.13;;;10.43;;
37559;SDS011;23398;50.928;7.084;2022-07-23T03:36:59;11.07;;;9.63;;
37559;SDS011;23398;50.928;7.084;2022-07-23T03:39:25;11.85;;;9.85;;
37559;SDS011;23398;50.928;7.084;2022-07-23T03:41:50;11.38;;;9.68;;
37559;SDS011;23398;50.928;7.084;2022-07-23T03:44:16;12.10;;;9.27;;
37559;SDS011;23398;50.928;7.084;2022-07-23T03:46:41;11.45;;;9.60;;
37559;SDS011;23398;50.928;7.084;2022-07-23T03:49:07;11.25;;;9.25;;
37559;SDS011;23398;50.928;7.084;2022-07-23T03:51:32;11.80;;;9.20;;
37559;SDS011;23398;50.928;7.084;2022-07-23T03:53:58;11.80;;;9.18;;
37559;SDS011;23398;50.928;7.084;2022-07-23T03:56:23;9.95;;;8.48;;
37559;SDS011;23398;50.928;7.084;2022-07-23T03:58:49;11.93;;;9.15;;
37559;SDS011;23398;50.928;7.084;2022-07-23T04:01:15;10.80;;;8.65;;
37559;SDS011;23398;50.928;7.084;2022-07-23T04:03:40;11.75;;;9.45;;
37559;SDS011;23398;50.928;7.084;2022-07-23T04:06:06;10.13;;;8.70;;
37559;SDS011;23398;50.928;7.084;2022-07-23T04:08:32;12.35;;;9.60;;
37559;SDS011;23398;50.928;7.084;2022-07-23T04:10:57;13.05;;;10.25;;
37559;SDS011;23398;50.928;7.084;2022-07-23T04:13:23;11.27;;;9.63;;
37559;SDS011;23398;50.928;7.084;2022-07-23T04:15:48;10.98;;;9.27;;
37559;SDS011;23398;50.928;7.084;2022-07-23T04:18:15;12.32;;;9.43;;
37559;SDS011;23398;50.928;7.084;2022-07-23T04:20:42;12.85;;;9.90;;
37559;SDS011;23398;50.928;7.084;2022-07-23T04:23:08;10.65;;;9.48;;
37559;SDS011;23398;50.928;7.084;2022-07-23T04:25:34;11.60;;;9.60;;
37559;SDS011;23398;50.928;7.084;2022-07-23T04:28:00;11.73;;;9.73;;
37559;SDS011;23398;50.928;7.084;2022-07-23T04:30:26;12.65;;;9.68;;
37559;SDS011;23398;50.928;7.084;2022-07-23T04:32:52;12.40;;;9.23;;
37559;SDS011;23398;50.928;7.084;2022-07-23T04:35:17;11.98;;;9.75;;
37559;SDS011;23398;50.928;7.084;2022-07-23T04:37:43;12.63;;;9.75;;
37559;SDS011;23398;50.928;7.084;2022-07-23T04:40:11;11.35;;;9.85;;
37559;SDS011;23398;50.928;7.084;2022-07-23T04:42:37;10.50;;;9.40;;
37559;SDS011;23398;50.928;7.084;2022-07-23T04:45:03;11.63;;;9.25;;
37559;SDS011;23398;50.928;7.084;2022-07-23T04:47:29;11.55;;;9.20;;
37559;SDS011;23398;50.928;7.084;2022-07-23T04:49:55;12.95;;;10.02;;
37559;SDS011;23398;50.928;7.084;2022-07-23T04:52:21;11.73;;;9.98;;
37559;SDS011;23398;50.928;7.084;2022-07-23T04:54:47;10.75;;;9.13;;
37559;SDS011;23398;50.928;7.084;2022-07-23T04:57:13;12.68;;;9.18;;
37559;SDS011;23398;50.928;7.084;2022-07-23T04:59:39;10.80;;;9.20;;
37559;SDS011;23398;50.928;7.084;2022-07-23T05:02:04;12.93;;;10.30;;
37559;SDS011;23398;50.928;7.084;2022-07-23T05:04:30;11.55;;;9.73;;
37559;SDS011;23398;50.928;7.084;2022-07-23T05:06:56;14.55;;;10.65;;
37559;SDS011;23398;50.928;7.084;2022-07-23T05:09:22;13.35;;;11.07;;
37559;SDS011;23398;50.928;7.084;2022-07-23T05:11:47;14.07;;;10.90;;
37559;SDS011;23398;50.928;7.084;2022-07-23T05:14:13;12.10;;;10.30;;
37559;SDS011;23398;50.928;7.084;2022-07-23T05:16:39;12.55;;;10.15;;
37559;SDS011;23398;50.928;7.084;2022-07-23T05:19:05;14.25;;;10.65;;
37559;SDS011;23398;50.928;7.084;2022-07-23T05:21:30;13.27;;;11.02;;
37559;SDS011;23398;50.928;7.084;2022-07-23T05:23:56;13.68;;;11.10;;
37559;SDS011;23398;50.928;7.084;2022-07-23T05:26:22;14.23;;;11.10;;
37559;SDS011;23398;50.928;7.084;2022-07-23T05:28:48;12.02;;;10.05;;
37559;SDS011;23398;50.928;7.084;2022-07-23T05:31:13;13.10;;;10.13;;
37559;SDS011;23398;50.928;7.084;2022-07-23T05:33:39;13.80;;;9.63;;
37559;SDS011;23398;50.928;7.084;2022-07-23T05:36:05;12.10;;;9.60;;
37559;SDS011;23398;50.928;7.084;2022-07-23T05:38:31;14.20;;;8.68;;
37559;SDS011;23398;50.928;7.084;2022-07-23T05:40:57;9.98;;;8.88;;
37559;SDS011;23398;50.928;7.084;2022-07-23T05:43:23;10.65;;;8.88;;
37559;SDS011;23398;50.928;7.084;2022-07-23T05:45:48;12.07;;;9.10;;
37559;SDS011;23398;50.928;7.084;2022-07-23T05:48:14;11.38;;;8.77;;
37559;SDS011;23398;50.928;7.084;2022-07-23T05:50:39;8.75;;;7.85;;
37559;SDS011;23398;50.928;7.084;2022-07-23T05:53:05;10.25;;;8.65;;
37559;SDS011;23398;50.928;7.084;2022-07-23T05:55:30;10.10;;;7.97;;
37559;SDS011;23398;50.928;7.084;2022-07-23T05:57:56;11.25;;;8.63;;
37559;SDS011;23398;50.928;7.084;2022-07-23T06:00:22;10.30;;;8.40;;
37559;SDS011;23398;50.928;7.084;2022-07-23T06:02:48;11.65;;;8.95;;
37559;SDS011;23398;50.928;7.084;2022-07-23T06:05:14;9.82;;;7.93;;
37559;SDS011;23398;50.928;7.084;2022-07-23T06:07:40;10.93;;;8.65;;
37559;SDS011;23398;50.928;7.084;2022-07-23T06:10:05;10.85;;;8.93;;
37559;SDS011;23398;50.928;7.084;2022-07-23T06:12:31;9.55;;;7.72;;
37559;SDS011;23398;50.928;7.084;2022-07-23T06:14:57;12.20;;;8.77;;
37559;SDS011;23398;50.928;7.084;2022-07-23T06:17:23;10.30;;;8.40;;
37559;SDS011;23398;50.928;7.084;2022-07-23T06:19:48;10.73;;;8.45;;
37559;SDS011;23398;50.928;7.084;2022-07-23T06:22:14;12.48;;;9.25;;
37559;SDS011;23398;50.928;7.084;2022-07-23T06:24:40;10.85;;;9.45;;
37559;SDS011;23398;50.928;7.084;2022-07-23T06:27:05;10.80;;;8.98;;
37559;SDS011;23398;50.928;7.084;2022-07-23T06:29:31;14.40;;;10.43;;
37559;SDS011;23398;50.928;7.084;2022-07-23T06:31:56;10.50;;;7.88;;
37559;SDS011;23398;50.928;7.084;2022-07-23T06:34:22;11.27;;;8.63;;
37559;SDS011;23398;50.928;7.084;2022-07-23T06:36:48;11.68;;;9.38;;
37559;SDS011;23398;50.928;7.084;2022-07-23T06:39:13;12.10;;;9.25;;
37559;SDS011;23398;50.928;7.084;2022-07-23T06:41:39;11.55;;;8.18;;
37559;SDS011;23398;50.928;7.084;2022-07-23T06:44:05;13.35;;;9.00;;
37559;SDS011;23398;50.928;7.084;2022-07-23T06:46:30;12.10;;;8.82;;
37559;SDS011;23398;50.928;7.084;2022-07-23T06:48:56;9.48;;;7.30;;
37559;SDS011;23398;50.928;7.084;2022-07-23T06:51:21;10.95;;;7.85;;
37559;SDS011;23398;50.928;7.084;2022-07-23T06:53:47;8.90;;;7.38;;
37559;SDS011;23398;50.928;7.084;2022-07-23T06:56:13;10.45;;;7.38;;
37559;SDS011;23398;50.928;7.084;2022-07-23T06:58:38;8.23;;;6.55;;
37559;SDS011;23398;50.928;7.084;2022-07-23T07:01:04;8.57;;;6.35;;
37559;SDS011;23398;50.928;7.084;2022-07-23T07:03:29;7.95;;;6.82;;
37559;SDS011;23398;50.928;7.084;2022-07-23T07:05:55;7.72;;;6.18;;
37559;SDS011;23398;50.928;7.084;2022-07-23T07:08:22;6.10;;;5.38;;
37559;SDS011;23398;50.928;7.084;2022-07-23T07:10:48;7.72;;;5.50;;
37559;SDS011;23398;50.928;7.084;2022-07-23T07:13:14;8.07;;;5.97;;
37559;SDS011;23398;50.928;7.084;2022-07-23T07:15:39;6.97;;;5.47;;
37559;SDS011;23398;50.928;7.084;2022-07-23T07:18:05;6.28;;;4.95;;
37559;SDS011;23398;50.928;7.084;2022-07-23T07:20:31;5.97;;;4.80;;
37559;SDS011;23398;50.928;7.084;2022-07-23T07:22:56;7.00;;;5.10;;
37559;SDS011;23398;50.928;7.084;2022-07-23T07:25:22;6.68;;;5.45;;
37559;SDS011;23398;50.928;7.084;2022-07-23T07:27:47;5.30;;;4.80;;
37559;SDS011;23398;50.928;7.084;2022-07-23T07:30:13;6.47;;;5.28;;
37559;SDS011;23398;50.928;7.084;2022-07-23T07:32:39;5.72;;;4.32;;
37559;SDS011;23398;50.928;7.084;2022-07-23T07:35:05;4.10;;;3.70;;
37559;SDS011;23398;50.928;7.084;2022-07-23T07:37:32;5.38;;;3.70;;
37559;SDS011;23398;50.928;7.084;2022-07-23T07:39:57;5.63;;;4.85;;
37559;SDS011;23398;50.928;7.084;2022-07-23T07:42:23;5.97;;;4.82;;
37559;SDS011;23398;50.928;7.084;2022-07-23T07:44:49;6.53;;;5.20;;
37559;SDS011;23398;50.928;7.084;2022-07-23T07:47:14;6.50;;;4.57;;
37559;SDS011;23398;50.928;7.084;2022-07-23T07:49:40;5.40;;;4.43;;
37559;SDS011;23398;50.928;7.084;2022-07-23T07:52:07;5.70;;;5.13;;
37559;SDS011;23398;50.928;7.084;2022-07-23T07:54:33;5.97;;;5.38;;
37559;SDS011;23398;50.928;7.084;2022-07-23T07:56:58;5.63;;;4.78;;
37559;SDS011;23398;50.928;7.084;2022-07-23T07:59:24;5.38;;;4.50;;
37559;SDS011;23398;50.928;7.084;2022-07-23T08:01:50;5.03;;;4.32;;
37559;SDS011;23398;50.928;7.084;2022-07-23T08:04:16;6.28;;;4.60;;
37559;SDS011;23398;50.928;7.084;2022-07-23T08:06:42;5.03;;;4.53;;
37559;SDS011;23398;50.928;7.084;2022-07-23T08:09:07;4.40;;;3.95;;
37559;SDS011;23398;50.928;7.084;2022-07-23T08:11:33;5.70;;;4.85;;
37559;SDS011;23398;50.928;7.084;2022-07-23T08:13:58;5.57;;;4.60;;
37559;SDS011;23398;50.928;7.084;2022-07-23T08:16:24;5.95;;;4.97;;
37559;SDS011;23398;50.928;7.084;2022-07-23T08:18:50;5.28;;;4.75;;
37559;SDS011;23398;50.928;7.084;2022-07-23T08:21:15;9.05;;;4.70;;
37559;SDS011;23398;50.928;7.084;2022-07-23T08:23:41;5.43;;;4.93;;
37559;SDS011;23398;50.928;7.084;2022-07-23T08:26:06;7.03;;;4.93;;
37559;SDS011;23398;50.928;7.084;2022-07-23T08:28:32;5.78;;;5.13;;
37559;SDS011;23398;50.928;7.084;2022-07-23T08:30:58;6.28;;;4.78;;
37559;SDS011;23398;50.928;7.084;2022-07-23T08:33:23;5.90;;;5.30;;
37559;SDS011;23398;50.928;7.084;2022-07-23T08:35:50;5.57;;;5.00;;
37559;SDS011;23398;50.928;7.084;2022-07-23T08:38:18;7.28;;;5.28;;
37559;SDS011;23398;50.928;7.084;2022-07-23T08:40:47;6.65;;;5.35;;
37559;SDS011;23398;50.928;7.084;2022-07-23T08:43:15;5.60;;;5.10;;
37559;SDS011;23398;50.928;7.084;2022-07-23T08:45:44;4.65;;;4.20;;
37559;SDS011;23398;50.928;7.084;2022-07-23T08:48:12;5.57;;;5.05;;
37559;SDS011;23398;50.928;7.084;2022-07-23T08:50:44;5.20;;;4.60;;
37559;SDS011;23398;50.928;7.084;2022-07-23T08:53:17;5.13;;;4.63;;
37559;SDS011;23398;50.928;7.084;2022-07-23T08:55:44;4.45;;;4.00;;
37559;SDS011;23398;50.928;7.084;2022-07-23T08:58:10;4.53;;;4.13;;
37559;SDS011;23398;50.928;7.084;2022-07-23T09:00:36;4.47;;;3.63;;
37559;SDS011;23398;50.928;7.084;2022-07-23T09:03:02;5.32;;;4.47;;
37559;SDS011;23398;50.928;7.084;2022-07-23T09:05:28;5.55;;;4.57;;
37559;SDS011;23398;50.928;7.084;2022-07-23T09:10:43;4.28;;;3.88;;
37559;SDS011;23398;50.928;7.084;2022-07-23T09:34:22;4.30;;;3.63;;
37559;SDS011;23398;50.928;7.084;2022-07-23T09:36:56;4.05;;;3.20;;
37559;SDS011;23398;50.928;7.084;2022-07-23T09:39:38;3.92;;;3.53;;
37559;SDS011;23398;50.928;7.084;2022-07-23T09:42:23;3.70;;;3.40;;
37559;SDS011;23398;50.928;7.084;2022-07-23T09:44:51;3.95;;;3.65;;
37559;SDS011;23398;50.928;7.084;2022-07-23T09:47:19;3.78;;;3.40;;
37559;SDS011;23398;50.928;7.084;2022-07-23T09:50:06;4.43;;;3.97;;
37559;SDS011;23398;50.928;7.084;2022-07-23T09:52:46;4.53;;;3.92;;
37559;SDS011;23398;50.928;7.084;2022-07-23T09:55:13;4.00;;;3.70;;
37559;SDS011;23398;50.928;7.084;2022-07-23T09:57:40;4.40;;;3.55;;
37559;SDS011;23398;50.928;7.084;2022-07-23T10:00:07;4.35;;;3.95;;
37559;SDS011;23398;50.928;7.084;2022-07-23T10:02:35;4.85;;;3.47;;
37559;SDS011;23398;50.928;7.084;2022-07-23T10:05:02;4.38;;;3.97;;
37559;SDS011;23398;50.928;7.084;2022-07-23T10:07:31;4.55;;;4.15;;
37559;SDS011;23398;50.928;7.084;2022-07-23T10:10:00;4.32;;;3.92;;
37559;SDS011;23398;50.928;7.084;2022-07-23T10:12:25;4.03;;;3.72;;
37559;SDS011;23398;50.928;7.084;2022-07-23T10:14:51;3.88;;;3.45;;
37559;SDS011;23398;50.928;7.084;2022-07-23T10:17:17;3.95;;;3.65;;
37559;SDS011;23398;50.928;7.084;2022-07-23T10:19:43;4.25;;;3.53;;
37559;SDS011;23398;50.928;7.084;2022-07-23T10:22:13;4.35;;;3.60;;
37559;SDS011;23398;50.928;7.084;2022-07-23T10:38:25;3.90;;;3.50;;
37559;SDS011;23398;50.928;7.084;2022-07-23T10:41:12;3.75;;;3.45;;
37559;SDS011;23398;50.928;7.084;2022-07-23T10:43:37;3.53;;;3.22;;
37559;SDS011;23398;50.928;7.084;2022-07-23T10:49:28;3.58;;;3.25;;
37559;SDS011;23398;50.928;7.084;2022-07-23T10:54:39;3.88;;;3.50;;
37559;SDS011;23398;50.928;7.084;2022-07-23T10:59:53;4.40;;;3.72;;
37559;SDS011;23398;50.928;7.084;2022-07-23T11:02:30;4.47;;;3.38;;
37559;SDS011;23398;50.928;7.084;2022-07-23T11:05:03;5.97;;;4.47;;
37559;SDS011;23398;50.928;7.084;2022-07-23T11:07:30;5.47;;;3.60;;
37559;SDS011;23398;50.928;7.084;2022-07-23T11:09:56;4.45;;;3.90;;
37559;SDS011;23398;50.928;7.084;2022-07-23T11:15:00;4.95;;;3.67;;
37559;SDS011;23398;50.928;7.084;2022-07-23T11:17:29;5.07;;;3.60;;
37559;SDS011;23398;50.928;7.084;2022-07-23T11:22:34;4.97;;;3.55;;
37559;SDS011;23398;50.928;7.084;2022-07-23T11:25:00;4.82;;;3.80;;
37559;SDS011;23398;50.928;7.084;2022-07-23T11:27:40;4.95;;;4.30;;
37559;SDS011;23398;50.928;7.084;2022-07-23T11:30:07;4.80;;;3.90;;
37559;SDS011;23398;50.928;7.084;2022-07-23T11:32:35;5.25;;;3.90;;
37559;SDS011;23398;50.928;7.084;2022-07-23T11:35:18;4.13;;;3.72;;
37559;SDS011;23398;50.928;7.084;2022-07-23T11:37:49;7.20;;;3.30;;
37559;SDS011;23398;50.928;7.084;2022-07-23T11:40:18;6.22;;;4.10;;
37559;SDS011;23398;50.928;7.084;2022-07-23T11:45:18;3.30;;;3.00;;
37559;SDS011;23398;50.928;7.084;2022-07-23T11:47:44;4.10;;;3.08;;
37559;SDS011;23398;50.928;7.084;2022-07-23T11:50:09;3.75;;;3.40;;
37559;SDS011;23398;50.928;7.084;2022-07-23T11:52:35;4.25;;;3.85;;
37559;SDS011;23398;50.928;7.084;2022-07-23T11:55:02;4.57;;;3.70;;
37559;SDS011;23398;50.928;7.084;2022-07-23T11:57:32;4.28;;;3.47;;
37559;SDS011;23398;50.928;7.084;2022-07-23T12:02:40;3.40;;;3.10;;
37559;SDS011;23398;50.928;7.084;2022-07-23T12:05:09;4.28;;;3.58;;
37559;SDS011;23398;50.928;7.084;2022-07-23T12:07:38;3.88;;;3.42;;
37559;SDS011;23398;50.928;7.084;2022-07-23T12:12:49;4.32;;;3.45;;
37559;SDS011;23398;50.928;7.084;2022-07-23T12:15:18;4.53;;;3.28;;
37559;SDS011;23398;50.928;7.084;2022-07-23T12:17:54;5.55;;;3.25;;
37559;SDS011;23398;50.928;7.084;2022-07-23T12:20:21;3.30;;;3.00;;
37559;SDS011;23398;50.928;7.084;2022-07-23T12:22:50;3.95;;;3.28;;
37559;SDS011;23398;50.928;7.084;2022-07-23T12:25:22;3.95;;;3.42;;
37559;SDS011;23398;50.928;7.084;2022-07-23T12:30:52;3.10;;;2.80;;
37559;SDS011;23398;50.928;7.084;2022-07-23T12:33:23;4.13;;;3.30;;
37559;SDS011;23398;50.928;7.084;2022-07-23T12:35:52;4.07;;;3.67;;
37559;SDS011;23398;50.928;7.084;2022-07-23T12:38:20;3.72;;;3.10;;
37559;SDS011;23398;50.928;7.084;2022-07-23T12:40:48;4.00;;;3.58;;
37559;SDS011;23398;50.928;7.084;2022-07-23T12:43:21;5.53;;;3.15;;
37559;SDS011;23398;50.928;7.084;2022-07-23T12:48:18;3.50;;;3.20;;
37559;SDS011;23398;50.928;7.084;2022-07-23T12:51:03;3.38;;;3.03;;
37559;SDS011;23398;50.928;7.084;2022-07-23T12:53:30;4.22;;;3.20;;
37559;SDS011;23398;50.928;7.084;2022-07-23T12:56:09;3.92;;;3.15;;
37559;SDS011;23398;50.928;7.084;2022-07-23T13:01:05;4.70;;;4.18;;
37559;SDS011;23398;50.928;7.084;2022-07-23T13:03:32;5.90;;;4.18;;
37559;SDS011;23398;50.928;7.084;2022-07-23T13:06:01;4.68;;;4.28;;
37559;SDS011;23398;50.928;7.084;2022-07-23T13:08:29;4.63;;;4.22;;
37559;SDS011;23398;50.928;7.084;2022-07-23T13:10:56;4.38;;;3.95;;
37559;SDS011;23398;50.928;7.084;2022-07-23T13:13:23;5.00;;;3.97;;
37559;SDS011;23398;50.928;7.084;2022-07-23T13:15:50;5.03;;;3.45;;
37559;SDS011;23398;50.928;7.084;2022-07-23T13:18:17;4.18;;;3.78;;
37559;SDS011;23398;50.928;7.084;2022-07-23T13:20:43;4.07;;;3.70;;
37559;SDS011;23398;50.928;7.084;2022-07-23T13:23:12;4.38;;;3.55;;
37559;SDS011;23398;50.928;7.084;2022-07-23T13:25:39;3.85;;;3.45;;
37559;SDS011;23398;50.928;7.084;2022-07-23T13:28:05;3.40;;;3.10;;
37559;SDS011;23398;50.928;7.084;2022-07-23T13:30:30;3.45;;;3.00;;
37559;SDS011;23398;50.928;7.084;2022-07-23T13:32:56;3.50;;;3.03;;
37559;SDS011;23398;50.928;7.084;2022-07-23T13:35:22;3.40;;;3.10;;
37559;SDS011;23398;50.928;7.084;2022-07-23T13:37:48;5.78;;;2.92;;
37559;SDS011;23398;50.928;7.084;2022-07-23T13:40:13;2.72;;;2.53;;
37559;SDS011;23398;50.928;7.084;2022-07-23T13:42:39;3.67;;;3.13;;
37559;SDS011;23398;50.928;7.084;2022-07-23T13:45:05;3.70;;;2.95;;
37559;SDS011;23398;50.928;7.084;2022-07-23T13:47:31;3.58;;;2.58;;
37559;SDS011;23398;50.928;7.084;2022-07-23T13:49:57;3.55;;;2.83;;
37559;SDS011;23398;50.928;7.084;2022-07-23T13:52:22;3.90;;;3.25;;
37559;SDS011;23398;50.928;7.084;2022-07-23T13:54:49;3.13;;;2.83;;
37559;SDS011;23398;50.928;7.084;2022-07-23T13:57:14;2.95;;;2.72;;
37559;SDS011;23398;50.928;7.084;2022-07-23T13:59:40;3.28;;;2.90;;
37559;SDS011;23398;50.928;7.084;2022-07-23T14:02:06;3.88;;;3.35;;
37559;SDS011;23398;50.928;7.084;2022-07-23T14:04:32;3.30;;;2.95;;
37559;SDS011;23398;50.928;7.084;2022-07-23T14:06:58;3.08;;;2.78;;
37559;SDS011;23398;50.928;7.084;2022-07-23T14:09:23;3.30;;;2.95;;
37559;SDS011;23398;50.928;7.084;2022-07-23T14:11:49;4.78;;;3.38;;
37559;SDS011;23398;50.928;7.084;2022-07-23T14:14:16;4.28;;;3.22;;
37559;SDS011;23398;50.928;7.084;2022-07-23T14:16:42;4.95;;;3.25;;
37559;SDS011;23398;50.928;7.084;2022-07-23T14:19:08;3.35;;;2.85;;
37559;SDS011;23398;50.928;7.084;2022-07-23T14:21:34;3.15;;;2.80;;
37559;SDS011;23398;50.928;7.084;2022-07-23T14:23:59;3.22;;;2.80;;
37559;SDS011;23398;50.928;7.084;2022-07-23T14:26:25;3.30;;;2.88;;
37559;SDS011;23398;50.928;7.084;2022-07-23T14:28:51;2.88;;;2.67;;
37559;SDS011;23398;50.928;7.084;2022-07-23T14:31:16;3.13;;;2.58;;
37559;SDS011;23398;50.928;7.084;2022-07-23T14:33:42;3.10;;;2.80;;
37559;SDS011;23398;50.928;7.084;2022-07-23T14:36:07;3.08;;;2.88;;
37559;SDS011;23398;50.928;7.084;2022-07-23T14:38:33;5.28;;;2.83;;
37559;SDS011;23398;50.928;7.084;2022-07-23T14:40:59;4.22;;;2.75;;
37559;SDS011;23398;50.928;7.084;2022-07-23T14:43:24;3.20;;;2.42;;
37559;SDS011;23398;50.928;7.084;2022-07-23T14:45:50;2.83;;;2.25;;
37559;SDS011;23398;50.928;7.084;2022-07-23T14:48:15;2.80;;;2.47;;
37559;SDS011;23398;50.928;7.084;2022-07-23T14:50:41;3.30;;;2.40;;
37559;SDS011;23398;50.928;7.084;2022-07-23T14:53:07;3.13;;;2.63;;
37559;SDS011;23398;50.928;7.084;2022-07-23T14:55:32;3.38;;;2.40;;
37559;SDS011;23398;50.928;7.084;2022-07-23T14:57:58;2.70;;;2.25;;
37559;SDS011;23398;50.928;7.084;2022-07-23T15:00:25;2.85;;;2.55;;
37559;SDS011;23398;50.928;7.084;2022-07-23T15:02:51;3.10;;;2.67;;
37559;SDS011;23398;50.928;7.084;2022-07-23T15:05:18;3.50;;;2.50;;
37559;SDS011;23398;50.928;7.084;2022-07-23T15:07:44;4.50;;;2.60;;
37559;SDS011;23398;50.928;7.084;2022-07-23T15:10:10;3.42;;;2.40;;
37559;SDS011;23398;50.928;7.084;2022-07-23T15:12:37;3.38;;;2.30;;
37559;SDS011;23398;50.928;7.084;2022-07-23T15:15:03;3.10;;;2.25;;
37559;SDS011;23398;50.928;7.084;2022-07-23T15:17:29;2.50;;;2.30;;
37559;SDS011;23398;50.928;7.084;2022-07-23T15:19:55;3.40;;;2.67;;
37559;SDS011;23398;50.928;7.084;2022-07-23T15:22:20;3.97;;;2.50;;
37559;SDS011;23398;50.928;7.084;2022-07-23T15:24:46;2.28;;;2.08;;
37559;SDS011;23398;50.928;7.084;2022-07-23T15:27:12;2.75;;;2.33;;
37559;SDS011;23398;50.928;7.084;2022-07-23T15:29:38;2.47;;;2.28;;
37559;SDS011;23398;50.928;7.084;2022-07-23T15:32:03;2.42;;;2.00;;
37559;SDS011;23398;50.928;7.084;2022-07-23T15:34:29;2.88;;;2.38;;
37559;SDS011;23398;50.928;7.084;2022-07-23T15:36:55;4.10;;;2.38;;
37559;SDS011;23398;50.928;7.084;2022-07-23T15:39:24;2.58;;;2.10;;
37559;SDS011;23398;50.928;7.084;2022-07-23T15:41:49;3.95;;;2.40;;
37559;SDS011;23398;50.928;7.084;2022-07-23T15:44:15;2.72;;;2.35;;